createdAt,value
2023-03-21T00:02:27.474Z,36.90
2023-03-21T00:05:00.614Z,38.10
2023-03-21T00:07:34.196Z,37.60
2023-03-21T00:10:14.259Z,36.67
2023-03-21T00:12:43.783Z,38.05
2023-03-21T00:15:13.668Z,36.70
2023-03-21T00:17:44.922Z,36.35
2023-03-21T00:20:15.393Z,35.85
2023-03-21T00:22:43.575Z,35.80
2023-03-21T00:25:11.709Z,35.15
2023-03-21T00:27:56.822Z,34.45
2023-03-21T00:30:29.333Z,33.95
2023-03-21T00:32:58.498Z,35.13
2023-03-21T00:35:58.503Z,33.95
2023-03-21T00:38:17.819Z,33.35
2023-03-21T00:40:49.246Z,33.83
2023-03-21T00:43:19.307Z,33.65
2023-03-21T00:45:48.939Z,34.92
2023-03-21T00:48:18.736Z,32.17
2023-03-21T00:50:47.279Z,31.58
2023-03-21T00:53:16.320Z,31.73
2023-03-21T00:55:44.576Z,33.28
2023-03-21T00:58:12.754Z,30.30
2023-03-21T01:00:41.534Z,31.27
2023-03-21T01:03:23.882Z,31.70
2023-03-21T01:06:05.976Z,30.33
2023-03-21T01:08:48.431Z,31.20
2023-03-21T01:11:18.726Z,30.63
2023-03-21T01:13:53.728Z,30.55
2023-03-21T01:16:26.165Z,30.95
2023-03-21T01:18:56.182Z,29.67
2023-03-21T01:21:24.416Z,28.45
2023-03-21T01:23:52.747Z,28.67
2023-03-21T01:26:20.978Z,28.52
2023-03-21T01:28:49.364Z,28.77
2023-03-21T01:31:18.133Z,28.85
2023-03-21T01:33:46.458Z,28.23
2023-03-21T01:36:21.922Z,27.45
2023-03-21T01:38:52.576Z,27.98
2023-03-21T01:41:26.172Z,27.50
2023-03-21T01:43:56.839Z,27.20
2023-03-21T01:46:47.841Z,26.20
2023-03-21T01:49:56.731Z,27.30
2023-03-21T01:52:36.994Z,25.48
2023-03-21T01:55:11.967Z,27.20
2023-03-21T01:58:04.759Z,26.48
2023-03-21T02:00:41.523Z,24.83
2023-03-21T02:03:34.912Z,25.38
2023-03-21T02:06:31.977Z,24.50
2023-03-21T02:09:10.604Z,24.88
2023-03-21T02:11:38.979Z,24.48
2023-03-21T02:14:10.097Z,23.95
2023-03-21T02:16:56.113Z,24.70
2023-03-21T02:20:12.607Z,24.23
2023-03-21T02:22:47.796Z,23.33
2023-03-21T02:25:43.378Z,23.38
2023-03-21T02:28:13.077Z,23.77
2023-03-21T02:31:06.879Z,23.80
2023-03-21T02:34:01.882Z,23.08
2023-03-21T02:36:41.511Z,23.55
2023-03-21T02:39:13.232Z,22.30
2023-03-21T02:41:46.948Z,22.80
2023-03-21T02:44:20.060Z,22.02
2023-03-21T02:46:59.674Z,22.05
2023-03-21T02:49:36.746Z,22.35
2023-03-21T02:52:15.556Z,21.13
2023-03-21T02:54:48.982Z,21.95
2023-03-21T02:57:22.882Z,20.98
2023-03-21T02:59:57.054Z,21.35
2023-03-21T03:02:34.913Z,19.73
2023-03-21T03:05:11.583Z,20.83
2023-03-21T03:07:49.409Z,20.20
2023-03-21T03:10:24.990Z,19.95
2023-03-21T03:12:58.809Z,20.65
2023-03-21T03:15:33.560Z,20.13
2023-03-21T03:18:03.352Z,18.95
2023-03-21T03:20:39.539Z,19.13
2023-03-21T03:23:14.626Z,19.63
2023-03-21T03:25:49.051Z,19.52
2023-03-21T03:28:19.791Z,18.70
2023-03-21T03:31:01.176Z,18.23
2023-03-21T03:33:41.497Z,18.00
2023-03-21T03:36:21.414Z,18.25
2023-03-21T03:38:53.575Z,18.25
2023-03-21T03:41:26.042Z,17.45
2023-03-21T03:44:00.277Z,18.58
2023-03-21T03:46:33.509Z,17.33
2023-03-21T03:49:03.495Z,16.80
2023-03-21T03:51:34.003Z,17.38
2023-03-21T03:54:26.727Z,17.77
2023-03-21T03:56:56.507Z,16.92
2023-03-21T03:59:25.287Z,17.95
2023-03-21T04:02:30.267Z,16.10
2023-03-21T04:04:58.664Z,15.98
2023-03-21T04:07:27.873Z,17.30
2023-03-21T04:09:59.344Z,16.52
2023-03-21T04:12:30.069Z,17.08
2023-03-21T04:15:17.367Z,16.13
2023-03-21T04:17:50.544Z,16.38
2023-03-21T04:20:33.821Z,15.90
2023-03-21T04:23:04.332Z,15.60
2023-03-21T04:25:35.004Z,16.05
2023-03-21T04:28:07.476Z,16.17
2023-03-21T04:31:02.266Z,16.08
2023-03-21T04:33:38.445Z,15.07
2023-03-21T04:36:09.573Z,15.85
2023-03-21T04:38:39.182Z,14.98
2023-03-21T04:41:07.965Z,14.82
2023-03-21T04:43:37.448Z,14.68
2023-03-21T04:46:06.461Z,14.85
2023-03-21T04:48:34.834Z,15.55
2023-03-21T04:51:03.242Z,15.43
2023-03-21T04:53:32.709Z,15.23
2023-03-21T04:56:00.976Z,14.43
2023-03-21T04:58:30.501Z,14.25
2023-03-21T05:01:02.614Z,14.73
2023-03-21T05:03:34.651Z,14.15
2023-03-21T05:06:03.203Z,13.88
2023-03-21T05:08:31.476Z,13.93
2023-03-21T05:10:59.806Z,13.65
2023-03-21T05:13:29.084Z,13.57
2023-03-21T05:15:57.362Z,13.82
2023-03-21T05:18:27.522Z,13.88
2023-03-21T05:21:07.992Z,12.95
2023-03-21T05:23:38.390Z,13.23
2023-03-21T05:26:08.001Z,13.25
2023-03-21T05:28:44.659Z,13.45
2023-03-21T05:31:15.975Z,13.57
2023-03-21T05:33:47.137Z,17.10
2023-03-21T05:36:18.528Z,14.13
2023-03-21T05:38:46.899Z,16.63
2023-03-21T05:41:18.158Z,21.67
2023-03-21T05:43:47.468Z,25.45
2023-03-21T05:46:17.176Z,20.67
2023-03-21T05:48:47.308Z,21.25
2023-03-21T05:51:17.870Z,22.90
2023-03-21T05:53:48.594Z,25.15
2023-03-21T05:56:17.849Z,28.48
2023-03-21T05:58:53.377Z,29.45
2023-03-21T06:01:23.466Z,25.85
2023-03-21T06:04:01.243Z,27.85
2023-03-21T06:06:30.805Z,28.98
2023-03-21T06:09:02.645Z,29.95
2023-03-21T06:11:33.390Z,30.25
2023-03-21T06:14:24.113Z,30.17
2023-03-21T06:17:17.542Z,29.02
2023-03-21T06:20:01.781Z,31.27
2023-03-21T06:22:36.483Z,30.83
2023-03-21T06:25:04.905Z,30.17
2023-03-21T06:27:33.114Z,31.45
2023-03-21T06:30:01.326Z,31.77
2023-03-21T06:32:35.029Z,29.52
2023-03-21T06:35:11.696Z,33.25
2023-03-21T06:37:40.037Z,31.15
2023-03-21T06:40:09.814Z,32.97
2023-03-21T06:42:38.046Z,33.28
2023-03-21T06:45:15.632Z,34.60
2023-03-21T06:47:44.625Z,37.28
2023-03-21T06:50:34.367Z,34.22
2023-03-21T06:53:02.739Z,37.88
2023-03-21T06:55:34.888Z,38.22
2023-03-21T06:58:03.420Z,35.60
2023-03-21T07:00:32.981Z,34.72
2023-03-21T07:03:02.048Z,35.70
2023-03-21T07:05:30.788Z,36.08
2023-03-21T07:08:01.328Z,35.55
2023-03-21T07:10:31.208Z,35.20
2023-03-21T07:13:06.299Z,35.00
2023-03-21T07:15:41.378Z,36.45
2023-03-21T07:18:09.839Z,35.70
2023-03-21T07:20:38.380Z,35.95
2023-03-21T07:23:08.108Z,35.55
2023-03-21T07:25:36.566Z,35.60
2023-03-21T07:28:09.137Z,35.55
2023-03-21T07:30:37.917Z,35.60
2023-03-21T07:33:07.158Z,34.33
2023-03-21T07:35:36.661Z,35.70
2023-03-21T07:38:05.384Z,33.95
2023-03-21T07:40:36.623Z,34.13
2023-03-21T07:43:05.018Z,34.55
2023-03-21T07:45:36.023Z,34.55
2023-03-21T07:48:08.700Z,34.15
2023-03-21T07:50:37.052Z,33.72
2023-03-21T07:53:05.225Z,34.13
2023-03-21T07:55:35.141Z,32.42
2023-03-21T07:58:05.006Z,32.63
2023-03-21T08:00:33.069Z,33.20
2023-03-21T08:03:01.322Z,32.83
2023-03-21T08:05:30.362Z,32.95
2023-03-21T08:07:58.502Z,33.20
2023-03-21T08:10:26.778Z,32.03
2023-03-21T08:12:54.950Z,31.65
2023-03-21T08:15:24.681Z,31.70
2023-03-21T08:17:52.857Z,31.77
2023-03-21T08:20:22.260Z,30.17
2023-03-21T08:22:50.875Z,30.13
2023-03-21T08:25:19.829Z,30.92
2023-03-21T08:27:48.343Z,30.58
2023-03-21T08:30:17.516Z,30.23
2023-03-21T08:32:47.085Z,30.55
2023-03-21T08:35:16.214Z,29.65
2023-03-21T08:37:44.489Z,29.58
2023-03-21T08:40:14.013Z,28.67
2023-03-21T08:42:42.294Z,29.88
2023-03-21T08:45:11.124Z,29.45
2023-03-21T08:47:39.486Z,28.70
2023-03-21T08:50:10.270Z,29.08
2023-03-21T08:52:38.414Z,29.40
2023-03-21T08:55:07.290Z,28.80
2023-03-21T08:57:35.537Z,28.77
2023-03-21T09:00:07.264Z,28.90
2023-03-21T09:02:35.548Z,28.42
2023-03-21T09:05:06.090Z,28.45
2023-03-21T09:07:36.435Z,28.88
2023-03-21T09:10:21.025Z,27.88
2023-03-21T09:12:49.972Z,26.75
2023-03-21T09:15:20.235Z,28.10
2023-03-21T09:17:52.615Z,27.45
2023-03-21T09:20:26.067Z,27.05
2023-03-21T09:22:56.360Z,26.77
2023-03-21T09:25:24.695Z,25.73
2023-03-21T09:27:53.882Z,25.75
2023-03-21T09:30:25.595Z,26.23
2023-03-21T09:32:55.972Z,26.23
2023-03-21T09:35:24.942Z,24.52
2023-03-21T09:37:53.289Z,25.92
2023-03-21T09:40:25.623Z,24.23
2023-03-21T09:42:59.878Z,25.88
2023-03-21T09:45:34.190Z,24.73
2023-03-21T09:48:02.771Z,24.88
2023-03-21T09:50:32.946Z,24.70
2023-03-21T09:53:02.299Z,23.58
2023-03-21T09:55:34.907Z,24.38
2023-03-21T09:58:06.941Z,23.38
2023-03-21T10:00:37.493Z,23.38
2023-03-21T10:03:10.300Z,23.92
2023-03-21T10:05:40.632Z,24.00
2023-03-21T10:08:10.778Z,23.27
2023-03-21T10:10:44.989Z,24.30
2023-03-21T10:13:15.269Z,23.83
2023-03-21T10:15:43.568Z,23.75
2023-03-21T10:18:14.284Z,23.45
2023-03-21T10:20:42.992Z,22.70
2023-03-21T10:23:13.947Z,22.88
2023-03-21T10:25:44.398Z,22.85
2023-03-21T10:28:16.313Z,22.77
2023-03-21T10:30:46.181Z,23.58
2023-03-21T10:33:15.467Z,21.83
2023-03-21T10:35:46.423Z,21.73
2023-03-21T10:38:16.324Z,23.38
2023-03-21T10:40:45.943Z,22.05
2023-03-21T10:43:22.362Z,21.25
2023-03-21T10:45:50.727Z,20.73
2023-03-21T10:48:19.094Z,21.08
2023-03-21T10:50:48.713Z,21.83
2023-03-21T10:53:19.226Z,21.10
2023-03-21T10:55:49.873Z,21.48
2023-03-21T10:58:25.291Z,21.48
2023-03-21T11:00:56.097Z,21.20
2023-03-21T11:03:25.189Z,21.45
2023-03-21T11:05:55.247Z,21.05
2023-03-21T11:08:23.412Z,20.70
2023-03-21T11:11:01.865Z,20.17
2023-03-21T11:13:35.842Z,20.27
2023-03-21T11:16:07.113Z,20.90
2023-03-21T11:18:35.422Z,19.42
2023-03-21T11:21:05.836Z,20.13
2023-03-21T11:23:35.060Z,20.23
2023-03-21T11:26:04.632Z,19.52
2023-03-21T11:28:34.888Z,20.02
2023-03-21T11:31:03.532Z,19.52
2023-03-21T11:33:34.103Z,20.02
2023-03-21T11:36:03.244Z,19.38
2023-03-21T11:38:33.084Z,18.63
2023-03-21T11:41:02.207Z,18.15
2023-03-21T11:43:33.542Z,18.55
2023-03-21T11:46:02.690Z,17.85
2023-03-21T11:48:30.884Z,18.35
2023-03-21T11:51:02.508Z,18.98
2023-03-21T11:53:36.813Z,18.42
2023-03-21T11:56:10.875Z,18.33
2023-03-21T11:58:48.092Z,17.95
2023-03-21T12:01:19.401Z,18.08
2023-03-21T12:04:06.113Z,17.25
2023-03-21T12:06:36.684Z,17.88
2023-03-21T12:09:11.744Z,17.80
2023-03-21T12:11:45.275Z,17.85
2023-03-21T12:14:18.575Z,17.65
2023-03-21T12:16:55.046Z,17.02
2023-03-21T12:19:41.557Z,16.98
2023-03-21T12:22:12.133Z,17.65
2023-03-21T12:24:41.604Z,16.75
2023-03-21T12:27:13.045Z,17.92
2023-03-21T12:29:48.648Z,17.00
2023-03-21T12:32:26.324Z,16.77
2023-03-21T12:35:08.772Z,16.65
2023-03-21T12:37:39.694Z,16.58
2023-03-21T12:40:11.576Z,16.15
2023-03-21T12:42:59.517Z,16.27
2023-03-21T12:45:37.447Z,16.27
2023-03-21T12:48:18.442Z,16.00
2023-03-21T12:50:46.859Z,15.73
2023-03-21T12:53:26.175Z,16.02
2023-03-21T12:55:54.624Z,16.02
2023-03-21T12:58:24.497Z,15.82
2023-03-21T13:00:54.865Z,15.88
2023-03-21T13:03:30.577Z,14.63
2023-03-21T13:06:08.077Z,15.02
2023-03-21T13:08:38.480Z,15.63
2023-03-21T13:11:07.106Z,15.07
2023-03-21T13:13:36.233Z,15.27
2023-03-21T13:16:10.996Z,15.05
2023-03-21T13:18:48.992Z,15.30
2023-03-21T13:21:18.355Z,14.65
2023-03-21T13:23:57.778Z,15.07
2023-03-21T13:26:33.710Z,14.57
2023-03-21T13:29:02.015Z,14.35
2023-03-21T13:31:48.831Z,15.30
2023-03-21T13:34:20.364Z,15.13
2023-03-21T13:36:48.561Z,13.88
2023-03-21T13:39:19.053Z,14.52
2023-03-21T13:41:49.045Z,14.15
2023-03-21T13:44:32.887Z,14.75
2023-03-21T13:47:03.655Z,14.07
2023-03-21T13:49:33.549Z,14.27
2023-03-21T13:52:02.323Z,13.77
2023-03-21T13:54:46.021Z,13.32
2023-03-21T13:57:23.300Z,13.25
2023-03-21T13:59:51.682Z,14.13
2023-03-21T14:02:31.151Z,13.80
2023-03-21T14:05:06.363Z,13.27
2023-03-21T14:07:35.564Z,13.85
2023-03-21T14:10:06.349Z,13.40
2023-03-21T14:12:38.228Z,13.68
2023-03-21T14:15:16.380Z,13.40
2023-03-21T14:17:52.425Z,13.63
2023-03-21T14:20:22.166Z,13.43
2023-03-21T14:22:50.491Z,13.32
2023-03-21T14:25:19.394Z,13.27
2023-03-21T14:27:49.660Z,13.40
2023-03-21T14:30:22.400Z,13.45
2023-03-21T14:32:52.017Z,12.88
2023-03-21T14:35:20.213Z,13.18
2023-03-21T14:37:48.563Z,12.45
2023-03-21T14:40:20.956Z,12.60
2023-03-21T14:42:49.644Z,12.25
2023-03-21T14:45:20.656Z,12.13
2023-03-21T14:48:01.288Z,12.27
2023-03-21T14:50:33.570Z,12.57
2023-03-21T14:53:01.863Z,12.60
2023-03-21T14:55:29.952Z,12.32
2023-03-21T14:57:58.265Z,11.80
2023-03-21T15:00:27.462Z,12.10
2023-03-21T15:02:55.911Z,11.95
2023-03-21T15:05:27.442Z,12.38
2023-03-21T15:07:57.550Z,12.25
2023-03-21T15:10:26.292Z,11.52
2023-03-21T15:12:55.409Z,12.10
2023-03-21T15:15:26.048Z,11.95
2023-03-21T15:17:56.071Z,11.30
2023-03-21T15:20:27.244Z,12.02
2023-03-21T15:22:56.424Z,11.57
2023-03-21T15:25:27.708Z,11.85
2023-03-21T15:27:55.836Z,11.55
2023-03-21T15:30:25.030Z,11.52
2023-03-21T15:32:53.307Z,11.45
2023-03-21T15:35:22.681Z,11.18
2023-03-21T15:37:56.863Z,11.40
2023-03-21T15:40:26.316Z,11.60
2023-03-21T15:43:05.915Z,11.15
2023-03-21T15:45:34.060Z,11.02
2023-03-21T15:48:03.729Z,11.18
2023-03-21T15:50:35.585Z,10.88
2023-03-21T15:53:06.817Z,10.98
2023-03-21T15:55:40.931Z,10.77
2023-03-21T15:58:13.470Z,11.50
2023-03-21T16:00:42.697Z,11.10
2023-03-21T16:03:17.115Z,10.95
2023-03-21T16:05:50.173Z,10.82
2023-03-21T16:08:21.247Z,10.50
2023-03-21T16:10:50.096Z,10.40
2023-03-21T16:13:20.292Z,11.10
2023-03-21T16:15:48.571Z,10.27
2023-03-21T16:18:17.221Z,10.27
2023-03-21T16:20:46.290Z,10.98
2023-03-21T16:23:14.926Z,10.07
2023-03-21T16:25:44.830Z,10.05
2023-03-21T16:28:13.942Z,9.82
2023-03-21T16:30:42.197Z,9.52
2023-03-21T16:33:12.193Z,10.15
2023-03-21T16:35:40.822Z,10.45
2023-03-21T16:38:08.997Z,9.90
2023-03-21T16:40:39.562Z,10.18
2023-03-21T16:43:09.576Z,9.73
2023-03-21T16:45:38.245Z,9.32
2023-03-21T16:48:09.032Z,10.00
2023-03-21T16:50:38.298Z,9.85
2023-03-21T16:53:06.641Z,9.88
2023-03-21T16:55:34.974Z,9.50
2023-03-21T16:58:03.249Z,10.07
2023-03-21T17:00:32.947Z,10.00
2023-03-21T17:03:02.258Z,10.30
2023-03-21T17:05:31.480Z,9.23
2023-03-21T17:08:02.253Z,9.45
2023-03-21T17:10:31.585Z,9.75
2023-03-21T17:12:59.939Z,9.82
2023-03-21T17:15:28.295Z,9.93
2023-03-21T17:17:58.091Z,9.15
2023-03-21T17:20:27.447Z,9.38
2023-03-21T17:22:55.664Z,9.38
2023-03-21T17:25:23.950Z,8.68
2023-03-21T17:27:53.141Z,9.13
2023-03-21T17:30:23.155Z,9.43
2023-03-21T17:32:51.731Z,9.15
2023-03-21T17:35:22.039Z,8.85
2023-03-21T17:37:51.372Z,8.95
2023-03-21T17:40:21.711Z,8.43
2023-03-21T17:42:50.028Z,9.15
2023-03-21T17:45:18.670Z,8.70
2023-03-21T17:47:46.912Z,8.70
2023-03-21T17:50:16.995Z,8.55
2023-03-21T17:52:47.674Z,8.93
2023-03-21T17:55:17.956Z,8.48
2023-03-21T17:57:46.211Z,8.57
2023-03-21T18:00:17.056Z,8.23
2023-03-21T18:02:45.424Z,8.75
2023-03-21T18:05:13.732Z,8.57
2023-03-21T18:10:32.361Z,7.90
2023-03-21T18:13:00.511Z,10.07
2023-03-21T18:15:30.535Z,10.25
2023-03-21T18:17:59.277Z,8.95
2023-03-21T18:20:49.885Z,9.98
2023-03-21T18:23:18.887Z,12.70
2023-03-21T18:25:48.540Z,12.93
2023-03-21T18:28:20.368Z,14.18
2023-03-21T18:31:07.742Z,13.73
2023-03-21T18:33:38.223Z,13.38
2023-03-21T18:36:07.795Z,13.55
2023-03-21T18:38:36.577Z,12.63
2023-03-21T18:41:06.651Z,12.32
2023-03-21T18:46:23.359Z,14.32
2023-03-21T18:48:51.977Z,18.42
2023-03-21T18:51:20.639Z,15.02
2023-03-21T18:53:49.090Z,16.85
2023-03-21T18:57:05.784Z,19.92
2023-03-21T18:59:07.530Z,19.08
2023-03-21T19:01:36.029Z,22.58
2023-03-21T19:06:53.226Z,24.60
2023-03-21T19:09:29.409Z,26.65
2023-03-21T19:12:01.473Z,27.02
2023-03-21T19:14:29.723Z,28.48
2023-03-21T19:17:55.787Z,29.92
2023-03-21T19:19:47.875Z,34.65
2023-03-21T19:22:16.219Z,29.85
2023-03-21T19:24:44.584Z,35.38
2023-03-21T19:27:14.882Z,36.10
2023-03-21T19:29:43.316Z,38.38
2023-03-21T19:32:11.538Z,41.92
2023-03-21T19:34:39.803Z,39.70
2023-03-21T19:37:07.948Z,34.90
2023-03-21T19:39:36.253Z,35.08
2023-03-21T19:42:15.969Z,40.55
2023-03-21T19:44:46.933Z,40.70
2023-03-21T19:47:15.143Z,42.53
2023-03-21T19:50:29.583Z,45.40
2023-03-21T19:52:31.955Z,47.42
2023-03-21T19:55:00.209Z,50.38
2023-03-21T19:57:28.555Z,55.63
2023-03-21T19:59:58.252Z,56.95
2023-03-21T20:02:35.704Z,55.72
2023-03-21T20:05:05.414Z,59.17
2023-03-21T20:07:33.763Z,61.47
2023-03-21T20:10:02.034Z,61.65
2023-03-21T20:12:30.783Z,61.97
2023-03-21T20:15:12.080Z,67.05
2023-03-21T20:17:44.927Z,64.95
2023-03-21T20:20:17.585Z,68.53
2023-03-21T20:25:34.563Z,71.00
2023-03-21T20:28:25.073Z,70.75
2023-03-21T20:30:54.707Z,71.60
2023-03-21T20:33:25.061Z,69.63
2023-03-21T20:38:45.928Z,70.30
2023-03-21T20:41:14.246Z,68.78
2023-03-21T20:46:32.244Z,68.88
2023-03-21T20:49:00.499Z,71.00
2023-03-21T20:54:17.936Z,69.90
2023-03-21T20:56:46.378Z,69.03
2023-03-21T20:59:25.567Z,67.20
2023-03-21T21:01:57.484Z,68.80
2023-03-21T21:04:46.937Z,67.82
2023-03-21T21:07:17.221Z,65.60
2023-03-21T21:09:46.298Z,64.40
2023-03-21T21:12:15.055Z,66.45
2023-03-21T21:14:43.838Z,62.95
2023-03-21T21:20:02.608Z,63.33
2023-03-21T21:22:31.569Z,63.17
2023-03-21T21:24:59.933Z,63.60
2023-03-21T21:27:28.596Z,61.58
2023-03-21T21:29:57.615Z,60.88
2023-03-21T21:32:27.371Z,59.45
2023-03-21T21:34:56.314Z,59.97
2023-03-21T21:37:25.144Z,57.42
2023-03-21T21:39:54.142Z,58.92
2023-03-21T21:42:22.595Z,58.67
2023-03-21T21:44:50.908Z,57.17
2023-03-21T21:47:19.267Z,56.35
2023-03-21T21:49:49.344Z,57.20
2023-03-21T21:52:24.257Z,54.15
2023-03-21T21:54:52.581Z,53.80
2023-03-21T21:57:20.870Z,53.08
2023-03-21T21:59:53.983Z,52.58
2023-03-21T22:02:25.501Z,53.78
2023-03-21T22:04:56.956Z,52.00
2023-03-21T22:07:27.565Z,53.28
2023-03-21T22:09:56.241Z,51.63
2023-03-21T22:12:24.607Z,51.05
2023-03-21T22:14:52.937Z,49.10
2023-03-21T22:17:21.106Z,50.10
2023-03-21T22:20:04.299Z,48.03
2023-03-21T22:22:34.281Z,48.90
2023-03-21T22:25:02.620Z,48.88
2023-03-21T22:27:31.156Z,46.95
2023-03-21T22:30:04.596Z,47.25
2023-03-21T22:32:32.841Z,46.42
2023-03-21T22:35:02.468Z,46.30
2023-03-21T22:37:31.135Z,46.00
2023-03-21T22:40:00.835Z,45.38
2023-03-21T22:42:29.243Z,44.20
2023-03-21T22:44:57.411Z,44.13
2023-03-21T22:47:25.652Z,43.20
2023-03-21T22:49:53.865Z,43.38
2023-03-21T22:52:22.088Z,42.80
2023-03-21T22:54:50.433Z,41.25
2023-03-21T22:57:20.752Z,41.60
2023-03-21T22:59:48.983Z,39.83
2023-03-21T23:02:17.245Z,40.75
2023-03-21T23:04:46.057Z,39.75
2023-03-21T23:07:14.331Z,39.47
2023-03-21T23:09:42.677Z,38.88
2023-03-21T23:12:11.050Z,38.92
2023-03-21T23:14:40.716Z,38.08
2023-03-21T23:17:10.248Z,37.33
2023-03-21T23:19:40.900Z,37.03
2023-03-21T23:22:09.304Z,37.28
2023-03-21T23:24:37.615Z,37.03
2023-03-21T23:27:06.146Z,35.47
2023-03-21T23:29:34.439Z,35.53
2023-03-21T23:32:04.091Z,35.58
2023-03-21T23:34:32.373Z,35.03
2023-03-21T23:37:00.789Z,34.78
2023-03-21T23:39:29.270Z,33.65
2023-03-21T23:41:58.778Z,34.88
2023-03-21T23:44:27.588Z,32.40
2023-03-21T23:46:55.878Z,32.00
2023-03-21T23:49:26.430Z,31.55
2023-03-21T23:51:54.757Z,31.75
2023-03-21T23:54:22.984Z,31.10
2023-03-21T23:56:51.311Z,29.98
2023-03-21T23:59:19.656Z,30.80
